Tropical Cyclones
[Index]
Main Index Home Page Stock Weather Photos Extreme Storms Discussion Storm News and Storm Chasing Reports Tropical Cyclones / Hurricanes / Typhoons Weather Data and Links Wild Fires / Bushfires Weather Observation Techniques Weather Picture Catalogue Tornado Pictures and Reports Stock Video Footage and DVDs for sale
Season 2005-2006 Tropical Cyclone CLARE Track Map
Season 2005-2006 Summaries: [BoM-AU] [JTWC-AU] [JTWC-SIO] [JTWC-SPAC] [JTWC-SH]
<<- Previous TC | JTWC 2005-2006 Season | Next TC ->>

click for intensity scale information  Lat/long Grid: Show Hide

 Date Labels: Show Hide

Joint Typhoon Warning Centre Cyclone Data

Name: CLARE

06 Jan 2006 18:00 UTC to 10 Jan 2006 18:00 UTC

    date/time    lat    long     hPa   cat  kts
2006-01-06 18   12.0   124.4    1004         20          
2006-01-07 00   12.5   123.8    1002         25          
2006-01-07 06   13.2   123.3    1002         25          
2006-01-07 12   14.4   123.0    1000         30          
2006-01-07 18   15.3   121.8     997         35          
2006-01-08 00   15.5   120.8     997         35          
2006-01-08 06   16.3   119.7     994    1    40          
2006-01-08 12   17.2   118.9     991    1    45          
2006-01-08 18   18.1   118.1     984    2    55          
2006-01-08 18   18.1   118.1     984    2    55          
2006-01-09 00   18.8   117.5     980    2    60          
2006-01-09 00   18.8   117.5     980    2    60          
2006-01-09 06   19.4   117.0     984    2    55          
2006-01-09 06   19.4   117.0     984    2    55          
2006-01-09 12   20.1   116.4     984    2    55          
2006-01-09 12   20.1   116.4     984    2    55          
2006-01-09 18   20.9   116.3     984    2    55          
2006-01-09 18   20.9   116.3     984    2    55          
2006-01-10 00   21.8   116.3     984    2    55          
2006-01-10 00   21.8   116.3     984    2    55          
2006-01-10 06   22.5   116.2     984    2    55          
2006-01-10 06   22.5   116.2     984    2    55          
2006-01-10 12   23.1   116.2     991    1    45          
2006-01-10 18   23.5   116.4     997         35          
Winds are 1-min average.

Tropical cyclone tracks developed by Michael Bath using data from the Joint Typhoon Warning Centre Best Tracks and Google Maps.


[Australian Severe Weather index] [Copyright Notice] [Email Contacts] [Search This Site] [Privacy Policy]
Document: tropical_cyclone_clare.htm Updated: 28 June 2017